Time;durP1;ratioP1;P1;durP2;ratioP2;P2;SDS_P1;SDS_P2;PMS_P1;PMS_P2;Temp;Humidity;BMP_temperature;BMP_pressure;BME280_temperature;BME280_humidity;BME280_pressure;Samples;Min_cycle;Max_cycle;Signal;HPM_P1;HPM_P2
2023/12/05 00:02:23;;;;;;;8.85;2.40;;;;;;;4.51;97.13;100139.66;5044532;28;20110;-45
2023/12/05 00:04:51;;;;;;;3.05;1.60;;;;;;;4.50;96.91;100154.50;5053362;28;20048;-45
2023/12/05 00:07:19;;;;;;;7.53;2.10;;;;;;;4.48;96.66;100156.72;5050089;28;20087;-46
2023/12/05 00:09:46;;;;;;;5.10;2.13;;;;;;;4.46;96.86;100137.06;5059113;28;20444;-54
2023/12/05 00:12:14;;;;;;;10.70;2.10;;;;;;;4.45;96.63;100146.44;5051089;28;20106;-61
2023/12/05 00:14:41;;;;;;;8.75;1.80;;;;;;;4.46;96.30;100153.50;5050110;28;20064;-49
2023/12/05 00:17:09;;;;;;;5.88;1.95;;;;;;;4.46;96.49;100153.50;5050084;28;20439;-46
2023/12/05 00:19:36;;;;;;;4.75;1.83;;;;;;;4.46;96.48;100164.47;5050304;28;20053;-46
2023/12/05 00:22:04;;;;;;;10.68;4.40;;;;;;;4.46;96.49;100175.44;5036807;28;20107;-45
2023/12/05 00:24:31;;;;;;;7.75;2.08;;;;;;;4.45;96.33;100182.06;5049722;28;20041;-54
2023/12/05 00:26:59;;;;;;;11.73;2.08;;;;;;;4.44;96.38;100169.47;5050148;28;20045;-45
2023/12/05 00:29:26;;;;;;;7.88;2.22;;;;;;;4.43;95.87;100178.81;5049574;28;20637;-46
2023/12/05 00:31:53;;;;;;;9.73;2.25;;;;;;;4.43;95.93;100176.06;5050045;28;20045;-46
2023/12/05 00:34:21;;;;;;;6.28;2.38;;;;;;;4.42;96.18;100179.97;5030992;28;20045;-45
2023/12/05 00:36:48;;;;;;;5.60;2.40;;;;;;;4.44;95.89;100177.69;5058358;28;20449;-45
2023/12/05 00:39:17;;;;;;;9.45;2.15;;;;;;;4.41;95.84;100184.63;5050047;28;20057;-45
2023/12/05 00:41:44;;;;;;;5.78;1.77;;;;;;;4.43;95.78;100187.03;5049699;28;20404;-45
2023/12/05 00:44:11;;;;;;;2.95;1.67;;;;;;;4.42;95.98;100199.13;5048855;28;20379;-45
2023/12/05 00:46:39;;;;;;;5.55;1.70;;;;;;;4.40;95.82;100204.91;5048697;28;20419;-45
2023/12/05 00:49:06;;;;;;;3.65;2.25;;;;;;;4.41;96.04;100203.00;5048598;28;20526;-45
2023/12/05 00:51:34;;;;;;;8.00;1.90;;;;;;;4.40;95.77;100206.84;5049297;28;20049;-45
2023/12/05 00:54:01;;;;;;;6.55;1.95;;;;;;;4.40;96.03;100212.31;5049477;28;20041;-45
2023/12/05 00:56:28;;;;;;;5.75;1.80;;;;;;;4.39;95.64;100205.25;5048701;28;20607;-47
2023/12/05 00:58:56;;;;;;;3.08;1.60;;;;;;;4.38;95.85;100206.38;5048066;28;20505;-45
2023/12/05 01:01:29;;;;;;;5.20;1.52;;;;;;;4.38;95.55;100207.19;5049919;28;20411;-47
2023/12/05 01:03:56;;;;;;;10.52;1.92;;;;;;;4.39;95.98;100213.47;5049398;28;20797;-45
2023/12/05 01:06:24;;;;;;;2.85;1.95;;;;;;;4.38;95.91;100217.31;5051505;28;20049;-46
2023/12/05 01:08:52;;;;;;;7.45;1.80;;;;;;;4.37;95.74;100221.22;5046587;28;20044;-46
2023/12/05 01:11:19;;;;;;;4.07;1.88;;;;;;;4.37;96.04;100230.22;5048882;28;20529;-45
2023/12/05 01:13:47;;;;;;;3.55;1.52;;;;;;;4.36;95.66;100222.31;5048781;28;20122;-47
2023/12/05 01:16:15;;;;;;;6.90;1.67;;;;;;;4.35;95.61;100231.66;5048852;28;20048;-46
2023/12/05 01:18:42;;;;;;;5.35;1.77;;;;;;;4.34;95.46;100232.81;5048063;28;20446;-45
2023/12/05 01:21:10;;;;;;;4.13;1.98;;;;;;;4.32;95.86;100236.66;5048536;28;20052;-45
2023/12/05 01:23:37;;;;;;;4.15;2.20;;;;;;;4.33;95.65;100232.00;5049796;28;20075;-47
2023/12/05 01:26:04;;;;;;;4.63;1.75;;;;;;;4.32;95.90;100233.91;5047930;28;20060;-45
2023/12/05 01:28:32;;;;;;;3.65;1.42;;;;;;;4.29;95.66;100231.81;5047675;28;20514;-47
2023/12/05 01:31:00;;;;;;;6.20;2.05;;;;;;;4.29;95.62;100242.75;5049886;28;20041;-45
2023/12/05 01:33:29;;;;;;;4.13;2.38;;;;;;;4.30;95.60;100233.44;5048824;28;20045;-46
2023/12/05 01:35:56;;;;;;;8.18;2.35;;;;;;;4.28;95.87;100241.16;5048778;28;20126;-47
2023/12/05 01:38:23;;;;;;;7.78;1.83;;;;;;;4.29;95.85;100231.00;5037290;28;20047;-45
2023/12/05 01:40:51;;;;;;;4.03;1.90;;;;;;;4.30;95.97;100238.09;5047800;28;20053;-47
2023/12/05 01:43:19;;;;;;;4.00;1.83;;;;;;;4.30;95.78;100244.38;5047928;28;20053;-47
2023/12/05 01:45:47;;;;;;;5.80;1.52;;;;;;;4.29;95.53;100240.03;5035886;28;20041;-46
2023/12/05 01:48:15;;;;;;;4.05;1.60;;;;;;;4.27;96.02;100245.00;5047798;28;20037;-45
2023/12/05 01:50:43;;;;;;;2.95;1.20;;;;;;;4.28;95.80;100246.66;5047191;28;20049;-45
2023/12/05 01:53:13;;;;;;;3.47;1.58;;;;;;;4.27;95.96;100239.53;5022381;28;20079;-45
2023/12/05 01:55:42;;;;;;;3.30;1.85;;;;;;;4.28;95.78;100257.59;5049377;28;20044;-45
2023/12/05 01:58:11;;;;;;;7.22;1.67;;;;;;;4.28;95.93;100248.56;5050166;28;20498;-45
2023/12/05 02:00:39;;;;;;;4.57;1.30;;;;;;;4.29;96.00;100248.25;5047257;28;20061;-45
2023/12/05 02:03:07;;;;;;;4.63;1.90;;;;;;;4.31;96.13;100254.22;5048266;28;20049;-45
2023/12/05 02:05:37;;;;;;;5.40;1.20;;;;;;;4.31;96.09;100262.44;5050627;28;20099;-45
2023/12/05 02:08:06;;;;;;;4.63;1.25;;;;;;;4.32;95.82;100260.50;5032041;28;20098;-45
2023/12/05 02:10:33;;;;;;;2.63;1.23;;;;;;;4.31;95.98;100267.91;5046279;28;20107;-45
2023/12/05 02:13:00;;;;;;;2.15;1.15;;;;;;;4.30;95.98;100262.75;5047136;28;20111;-45
2023/12/05 02:15:28;;;;;;;3.80;1.55;;;;;;;4.30;95.81;100260.84;5030172;28;20442;-45
2023/12/05 02:18:15;;;;;;;6.25;1.15;;;;;;;4.31;96.17;100262.44;5047831;28;20037;-46
2023/12/05 02:21:00;;;;;;;4.50;1.23;;;;;;;4.31;95.73;100267.91;5046179;28;20411;-45
2023/12/05 02:23:44;;;;;;;3.67;1.00;;;;;;;4.33;95.88;100275.84;5048650;28;20049;-45
2023/12/05 02:26:23;;;;;;;5.50;1.83;;;;;;;4.32;96.06;100277.75;5047550;28;20114;-48
2023/12/05 02:28:50;;;;;;;3.38;1.50;;;;;;;4.33;95.96;100275.84;5046719;28;20111;-50
2023/12/05 02:31:18;;;;;;;3.75;1.48;;;;;;;4.34;95.84;100279.38;5046690;28;20076;-48
2023/12/05 02:33:45;;;;;;;4.40;1.60;;;;;;;4.32;96.13;100279.69;5023531;28;20455;-45
2023/12/05 02:36:13;;;;;;;2.53;1.83;;;;;;;4.31;95.91;100278.09;5043050;28;20057;-45
2023/12/05 02:38:48;;;;;;;4.53;1.50;;;;;;;4.29;96.28;100283.88;5046857;28;20473;-45
2023/12/05 02:41:21;;;;;;;3.63;1.38;;;;;;;4.27;95.86;100288.84;5028987;28;20412;-45
2023/12/05 02:43:57;;;;;;;10.25;1.60;;;;;;;4.26;96.35;100283.69;5047140;28;20707;-45
2023/12/05 02:46:25;;;;;;;4.40;1.48;;;;;;;4.23;96.43;100285.16;5049830;28;20041;-45
2023/12/05 02:48:54;;;;;;;3.05;1.77;;;;;;;4.23;96.38;100298.84;5046438;28;20278;-45
2023/12/05 02:51:22;;;;;;;4.43;1.45;;;;;;;4.24;96.17;100303.19;5036926;28;20048;-45
2023/12/05 02:53:49;;;;;;;4.05;1.38;;;;;;;4.24;96.41;100300.44;5046506;28;20041;-45
2023/12/05 02:56:18;;;;;;;2.65;1.15;;;;;;;4.25;96.52;100288.38;5047404;28;20041;-45
2023/12/05 02:58:45;;;;;;;2.83;0.88;;;;;;;4.25;96.06;100301.25;5042958;28;20057;-46
2023/12/05 03:01:13;;;;;;;5.03;0.98;;;;;;;4.26;96.05;100314.63;5159233;22;20047;-48
2023/12/05 03:03:42;;;;;;;1.58;1.00;;;;;;;4.27;96.34;100315.44;5107823;27;20043;-49
2023/12/05 03:06:09;;;;;;;4.07;1.02;;;;;;;4.26;96.31;100320.09;5107476;28;20046;-48
2023/12/05 03:08:38;;;;;;;2.28;1.30;;;;;;;4.26;95.91;100309.16;5116754;28;20059;-45
2023/12/05 03:11:05;;;;;;;2.03;0.90;;;;;;;4.27;96.27;100310.78;5118143;28;20044;-45
2023/12/05 03:13:40;;;;;;;0.70;0.50;;;;;;;4.27;95.86;100309.97;5122825;28;20119;-48
2023/12/05 03:16:08;;;;;;;4.80;0.88;;;;;;;4.26;96.01;100322.84;5125574;28;20100;-47
2023/12/05 03:18:35;;;;;;;1.13;0.65;;;;;;;4.24;96.24;100332.50;5105184;28;20040;-45
2023/12/05 03:21:04;;;;;;;1.88;0.80;;;;;;;4.22;96.09;100332.84;5124813;28;20039;-48
2023/12/05 03:23:31;;;;;;;3.85;0.88;;;;;;;4.22;96.03;100335.56;5127475;28;20039;-49
2023/12/05 03:25:58;;;;;;;2.28;0.90;;;;;;;4.22;96.34;100324.63;5126541;28;20404;-47
2023/12/05 03:28:26;;;;;;;2.00;0.80;;;;;;;4.23;96.47;100326.25;5125910;28;20306;-46
2023/12/05 03:30:53;;;;;;;4.75;1.00;;;;;;;4.24;96.18;100343.47;5126393;28;20043;-46
2023/12/05 03:33:20;;;;;;;4.63;1.30;;;;;;;4.22;96.15;100330.09;5119765;28;20107;-49
2023/12/05 03:35:48;;;;;;;2.05;1.23;;;;;;;4.23;96.42;100328.97;5126334;28;20514;-45
2023/12/05 03:38:15;;;;;;;1.52;1.00;;;;;;;4.22;96.20;100341.06;5108650;28;20058;-52
2023/12/05 03:40:42;;;;;;;8.73;1.27;;;;;;;4.22;96.02;100332.84;5127456;28;20072;-47
2023/12/05 03:43:10;;;;;;;5.18;1.02;;;;;;;4.21;96.17;100331.19;5122628;28;20062;-48
2023/12/05 03:45:38;;;;;;;4.15;1.25;;;;;;;4.21;96.42;100335.88;5108840;28;20097;-46
2023/12/05 03:48:05;;;;;;;4.40;1.15;;;;;;;4.21;96.31;100339.41;5126531;28;20438;-48
2023/12/05 03:50:33;;;;;;;6.32;1.20;;;;;;;4.21;96.41;100333.13;5127644;28;20059;-46
2023/12/05 03:53:00;;;;;;;2.72;1.15;;;;;;;4.22;96.62;100334.75;5124146;28;20039;-46
2023/12/05 03:55:27;;;;;;;5.15;1.10;;;;;;;4.22;96.63;100345.72;5125943;28;20093;-48
2023/12/05 03:57:55;;;;;;;2.88;1.08;;;;;;;4.21;96.58;100342.16;5108764;28;20115;-45
2023/12/05 04:00:23;;;;;;;3.35;1.30;;;;;;;4.20;96.42;100343.31;5126310;28;20035;-49
2023/12/05 04:02:50;;;;;;;2.35;0.98;;;;;;;4.20;96.54;100340.56;5127144;28;20469;-46
2023/12/05 04:05:18;;;;;;;1.23;0.68;;;;;;;4.19;96.58;100352.63;5128331;27;20497;-46
2023/12/05 04:07:46;;;;;;;1.77;1.13;;;;;;;4.18;96.42;100350.22;5130800;27;20092;-47
2023/12/05 04:10:13;;;;;;;4.25;1.08;;;;;;;4.17;96.52;100343.91;5127790;27;20054;-48
2023/12/05 04:12:41;;;;;;;0.95;0.75;;;;;;;4.17;96.92;100338.44;5131679;27;20043;-47
2023/12/05 04:15:09;;;;;;;3.10;0.90;;;;;;;4.15;96.66;100348.91;5135349;27;20047;-46
2023/12/05 04:17:36;;;;;;;3.97;0.70;;;;;;;4.15;96.62;100346.16;5125053;27;20043;-47
2023/12/05 04:20:07;;;;;;;1.77;0.80;;;;;;;4.12;96.91;100344.06;5130695;27;20043;-49
2023/12/05 04:22:34;;;;;;;1.08;0.80;;;;;;;4.12;96.70;100341.31;5131128;27;20069;-52
2023/12/05 04:25:03;;;;;;;3.97;1.20;;;;;;;4.12;96.74;100348.72;5130428;27;20450;-49
2023/12/05 04:27:31;;;;;;;2.13;0.75;;;;;;;4.10;96.75;100343.53;5111966;27;20719;-50
2023/12/05 04:29:58;;;;;;;2.08;0.70;;;;;;;4.09;96.88;100347.41;5120366;27;20446;-53
2023/12/05 04:32:26;;;;;;;2.55;1.92;;;;;;;4.09;97.06;100360.28;5130167;27;20453;-47
2023/12/05 04:34:54;;;;;;;2.15;0.93;;;;;;;4.08;97.05;100353.19;5127314;27;20051;-45
2023/12/05 04:37:21;;;;;;;2.90;1.27;;;;;;;4.08;96.75;100364.13;5130901;27;20039;-45
2023/12/05 04:39:49;;;;;;;1.85;1.17;;;;;;;4.07;96.95;100366.09;5127303;27;20044;-45
2023/12/05 04:42:16;;;;;;;2.47;1.48;;;;;;;4.06;96.74;100371.88;5130514;27;20043;-45
2023/12/05 04:44:44;;;;;;;5.55;0.93;;;;;;;4.05;97.00;100364.78;5117781;27;20100;-45
2023/12/05 04:47:11;;;;;;;1.42;0.90;;;;;;;4.05;97.10;100371.06;5122432;27;20039;-53
2023/12/05 04:49:39;;;;;;;5.60;1.20;;;;;;;4.05;97.18;100367.53;5126808;27;20062;-49
2023/12/05 04:52:06;;;;;;;1.95;0.90;;;;;;;4.05;97.23;100384.75;5129130;27;20039;-49
2023/12/05 04:54:33;;;;;;;3.17;1.00;;;;;;;4.05;97.16;100383.97;5130403;27;20112;-46
2023/12/05 04:57:01;;;;;;;3.75;0.90;;;;;;;4.06;97.23;100386.38;5129843;27;20171;-49
2023/12/05 04:59:28;;;;;;;3.70;1.42;;;;;;;4.05;97.16;100392.97;5117517;27;20039;-46
2023/12/05 05:01:55;;;;;;;2.22;1.00;;;;;;;4.05;97.53;100390.22;5128720;27;20051;-47
2023/12/05 05:04:23;;;;;;;3.97;1.20;;;;;;;4.05;97.18;100384.75;5130217;27;20054;-46
2023/12/05 05:06:51;;;;;;;3.00;1.38;;;;;;;4.07;97.63;100387.19;5129900;27;20046;-51
2023/12/05 05:09:18;;;;;;;2.33;1.13;;;;;;;4.05;97.48;100401.19;5129491;27;20540;-46
2023/12/05 05:11:45;;;;;;;2.67;1.20;;;;;;;4.05;97.41;100384.75;5124766;27;20503;-47
2023/12/05 05:14:12;;;;;;;1.85;1.17;;;;;;;4.06;97.38;100391.03;5121807;27;20050;-48
2023/12/05 05:16:40;;;;;;;1.75;1.33;;;;;;;4.04;97.53;100388.63;5123598;27;20055;-46
2023/12/05 05:19:07;;;;;;;4.88;1.10;;;;;;;4.03;97.89;100395.22;5129831;27;20520;-46
2023/12/05 05:21:35;;;;;;;1.75;1.00;;;;;;;4.00;97.92;100403.22;5121820;27;20042;-45
2023/12/05 05:24:02;;;;;;;2.30;0.93;;;;;;;4.00;97.85;100401.31;5123114;27;20046;-46
2023/12/05 05:26:29;;;;;;;5.22;1.20;;;;;;;3.98;97.63;100409.03;5129496;27;20051;-50
2023/12/05 05:28:57;;;;;;;1.77;0.80;;;;;;;3.96;98.07;100416.75;5128481;27;20111;-45
2023/12/05 05:31:24;;;;;;;2.13;0.85;;;;;;;3.96;97.92;100421.41;5126690;27;20050;-46
2023/12/05 05:33:51;;;;;;;4.13;1.48;;;;;;;3.95;97.89;100420.59;5124189;27;20115;-46
2023/12/05 05:36:19;;;;;;;2.25;0.85;;;;;;;3.94;98.21;100427.22;5128142;27;20445;-47
2023/12/05 05:38:46;;;;;;;2.00;1.00;;;;;;;3.95;98.06;100428.81;5126387;27;20430;-47
2023/12/05 05:41:14;;;;;;;0.65;0.65;;;;;;;3.95;98.03;100426.06;5112767;27;20044;-49
2023/12/05 05:43:41;;;;;;;2.10;1.00;;;;;;;3.94;98.36;100426.41;5105355;27;20035;-46
2023/12/05 05:46:08;;;;;;;3.08;0.82;;;;;;;3.93;98.50;100431.06;5128214;27;20091;-50
2023/12/05 05:48:35;;;;;;;3.75;0.90;;;;;;;3.93;98.65;100431.06;5129058;27;20031;-46
2023/12/05 05:51:05;;;;;;;0.55;0.50;;;;;;;3.93;98.70;100436.53;5126304;27;20047;-49
2023/12/05 05:53:32;;;;;;;1.42;0.70;;;;;;;3.93;98.64;100439.28;5129148;27;20050;-49
2023/12/05 05:56:00;;;;;;;2.92;0.50;;;;;;;3.93;98.72;100447.50;5100902;28;20061;-46
2023/12/05 05:58:28;;;;;;;1.13;0.60;;;;;;;3.93;98.80;100442.00;5128084;27;20039;-47
2023/12/05 06:00:55;;;;;;;2.38;0.80;;;;;;;3.93;98.65;100447.50;5127397;27;20453;-45
2023/12/05 06:03:23;;;;;;;2.17;0.85;;;;;;;3.93;99.10;100441.19;5124372;27;20076;-45
2023/12/05 06:05:50;;;;;;;4.53;1.15;;;;;;;3.92;99.12;100440.38;5124096;27;20084;-45
2023/12/05 06:08:18;;;;;;;2.58;0.90;;;;;;;3.92;99.14;100462.28;5127825;27;20623;-46
2023/12/05 06:10:45;;;;;;;2.60;0.60;;;;;;;3.92;98.85;100459.56;5114891;27;20055;-47
2023/12/05 06:13:12;;;;;;;3.45;0.65;;;;;;;3.92;99.25;100467.78;5127786;27;20051;-47
2023/12/05 06:15:40;;;;;;;2.10;0.95;;;;;;;3.92;99.16;100470.50;5120019;27;20043;-51
2023/12/05 06:18:07;;;;;;;1.40;0.73;;;;;;;3.90;99.43;100475.50;5128828;27;20449;-47
2023/12/05 06:20:34;;;;;;;2.38;0.80;;;;;;;3.90;99.54;100486.44;5120742;27;20043;-50
2023/12/05 06:23:02;;;;;;;1.75;0.88;;;;;;;3.92;99.52;100484.19;5118609;27;20093;-47
2023/12/05 06:25:29;;;;;;;2.75;1.00;;;;;;;3.93;99.50;100485.84;5127535;27;20095;-46
2023/12/05 06:27:57;;;;;;;3.38;0.82;;;;;;;3.92;99.45;100484.19;5127600;27;20508;-49
2023/12/05 06:30:26;;;;;;;1.48;0.80;;;;;;;3.93;99.27;100493.22;5127019;27;20039;-50
2023/12/05 06:32:54;;;;;;;3.08;1.02;;;;;;;3.91;99.91;100477.13;5108340;27;20047;-47
2023/12/05 06:35:21;;;;;;;2.83;0.90;;;;;;;3.92;99.65;100489.69;5127083;27;20100;-46
2023/12/05 06:37:52;;;;;;;2.67;0.85;;;;;;;3.93;99.70;100494.06;5125801;27;20055;-48
2023/12/05 06:40:21;;;;;;;3.25;1.00;;;;;;;3.91;100.00;100496.28;5114189;27;20065;-47
2023/12/05 06:42:48;;;;;;;5.57;1.33;;;;;;;3.91;100.00;100496.28;5116750;27;20043;-46
2023/12/05 06:45:15;;;;;;;3.83;1.30;;;;;;;3.91;99.84;100493.56;5122510;27;20047;-45
2023/12/05 06:47:44;;;;;;;1.20;0.90;;;;;;;3.90;99.84;100497.41;5120071;27;20044;-49
2023/12/05 06:50:13;;;;;;;6.50;1.30;;;;;;;3.90;99.97;100505.63;5124093;27;20126;-47
2023/12/05 06:52:40;;;;;;;4.95;1.10;;;;;;;3.90;99.92;100505.63;5127467;27;20122;-48
2023/12/05 06:55:09;;;;;;;2.35;1.50;;;;;;;3.89;100.00;100506.72;5124416;27;20092;-45
2023/12/05 06:57:36;;;;;;;6.97;1.20;;;;;;;3.90;100.00;100519.31;5119951;27;20087;-45
2023/12/05 07:00:05;;;;;;;3.00;1.40;;;;;;;3.89;100.00;100512.19;5098800;28;20051;-45
2023/12/05 07:02:33;;;;;;;2.22;1.00;;;;;;;3.88;100.00;100516.06;5121893;27;20040;-50
2023/12/05 07:05:04;;;;;;;1.67;1.30;;;;;;;3.86;99.89;100507.34;5117577;28;20096;-49
2023/12/05 07:07:32;;;;;;;2.58;1.02;;;;;;;3.85;100.00;100521.34;5127676;27;20115;-48
2023/12/05 07:09:59;;;;;;;4.65;1.40;;;;;;;3.84;100.00;100514.25;5127711;28;20426;-46
2023/12/05 07:12:27;;;;;;;2.88;1.48;;;;;;;3.81;100.00;100521.16;5126594;28;20039;-46
2023/12/05 07:14:54;;;;;;;5.80;1.42;;;;;;;3.83;100.00;100526.31;5127049;28;20055;-47
2023/12/05 07:17:23;;;;;;;3.15;1.77;;;;;;;3.84;100.00;100533.44;5127689;28;20039;-50
2023/12/05 07:19:50;;;;;;;7.57;1.80;;;;;;;3.85;100.00;100543.25;5123094;28;20047;-49
2023/12/05 07:22:17;;;;;;;3.72;2.15;;;;;;;3.85;100.00;100537.75;5127910;28;20043;-49
2023/12/05 07:24:45;;;;;;;6.20;1.75;;;;;;;3.87;100.00;100546.47;5124230;28;20054;-49
2023/12/05 07:27:12;;;;;;;6.68;1.67;;;;;;;3.88;100.00;100543.47;5126331;28;20065;-45
2023/12/05 07:29:39;;;;;;;4.00;1.60;;;;;;;3.90;100.00;100545.88;5123752;28;20047;-45
2023/12/05 07:32:06;;;;;;;3.28;1.55;;;;;;;3.90;100.00;100548.63;5126988;28;20080;-46
2023/12/05 07:34:34;;;;;;;5.72;1.70;;;;;;;3.92;100.00;100544.44;5126431;28;20088;-47
2023/12/05 07:37:02;;;;;;;10.02;1.85;;;;;;;3.90;100.00;100546.69;5126853;28;20446;-50
2023/12/05 07:39:29;;;;;;;6.78;2.78;;;;;;;3.92;100.00;100557.34;5113089;28;20073;-45
2023/12/05 07:41:56;;;;;;;8.10;2.00;;;;;;;3.92;100.00;100557.34;5121739;27;20047;-48
2023/12/05 07:44:24;;;;;;;2.88;2.10;;;;;;;3.92;100.00;100563.63;5130511;27;20059;-50
2023/12/05 07:46:51;;;;;;;6.63;1.65;;;;;;;3.93;100.00;100554.31;5096841;27;20126;-46
2023/12/05 07:49:19;;;;;;;8.52;2.45;;;;;;;3.94;100.00;100566.88;5131160;27;20043;-47
2023/12/05 07:51:48;;;;;;;3.58;2.05;;;;;;;3.95;100.00;100565.75;5131675;27;20501;-45
2023/12/05 07:54:15;;;;;;;5.43;2.90;;;;;;;3.96;100.00;100570.13;5112734;27;20047;-50
2023/12/05 07:56:43;;;;;;;5.80;1.83;;;;;;;3.97;100.00;100569.00;5129217;27;20071;-45
2023/12/05 07:59:10;;;;;;;6.18;3.08;;;;;;;3.98;100.00;100573.38;5112172;27;20055;-45
2023/12/05 08:01:42;;;;;;;8.80;2.30;;;;;;;3.97;100.00;100563.50;5122764;27;20055;-46
2023/12/05 08:04:09;;;;;;;7.13;2.13;;;;;;;3.99;100.00;100572.25;5129954;27;20449;-45
2023/12/05 08:06:37;;;;;;;6.00;1.83;;;;;;;4.00;100.00;100565.66;5113267;27;20043;-48
2023/12/05 08:09:04;;;;;;;5.03;2.42;;;;;;;4.01;100.00;100564.53;5114032;27;20040;-45
2023/12/05 08:11:32;;;;;;;5.18;2.22;;;;;;;4.02;100.00;100563.44;5110903;27;20397;-47
2023/12/05 08:13:59;;;;;;;7.07;2.08;;;;;;;4.04;100.00;100563.13;5130930;27;20520;-49
2023/12/05 08:16:26;;;;;;;4.80;2.28;;;;;;;4.05;100.00;100559.28;5128686;27;20522;-46
2023/12/05 08:18:54;;;;;;;5.82;1.95;;;;;;;4.04;100.00;100569.41;5127671;27;20050;-51
2023/12/05 08:21:22;;;;;;;6.63;2.03;;;;;;;4.05;100.00;100570.22;5129725;27;20046;-47
2023/12/05 08:23:49;;;;;;;6.35;2.30;;;;;;;4.07;100.00;100578.94;5123087;27;20100;-50
2023/12/05 08:26:16;;;;;;;5.20;2.20;;;;;;;4.05;100.00;100576.50;5126487;27;20451;-50
2023/12/05 08:28:44;;;;;;;9.40;1.98;;;;;;;4.08;100.00;100580.53;5126425;27;20043;-50
2023/12/05 08:31:11;;;;;;;7.07;2.45;;;;;;;4.09;100.00;100580.25;5130029;27;20047;-47
2023/12/05 08:33:38;;;;;;;6.82;2.40;;;;;;;4.10;100.00;100589.28;5129120;27;20099;-49
2023/12/05 08:36:06;;;;;;;6.05;1.98;;;;;;;4.10;100.00;100590.09;5128281;27;20043;-53
2023/12/05 08:38:35;;;;;;;9.85;2.38;;;;;;;4.10;100.00;100592.81;5128609;27;20039;-49
2023/12/05 08:41:03;;;;;;;6.50;1.67;;;;;;;4.09;100.00;100604.91;5128558;27;20039;-49
2023/12/05 08:43:30;;;;;;;4.80;1.88;;;;;;;4.09;100.00;100598.63;5126615;27;20088;-52
2023/12/05 08:45:58;;;;;;;5.82;1.95;;;;;;;4.08;100.00;100608.75;5120589;27;20047;-53
2023/12/05 08:48:26;;;;;;;7.45;2.47;;;;;;;4.10;100.00;100612.00;5128318;27;20047;-51
2023/12/05 08:50:54;;;;;;;8.82;2.45;;;;;;;4.11;100.00;100626.50;5128243;27;20042;-50
2023/12/05 08:53:21;;;;;;;4.47;1.92;;;;;;;4.12;100.00;100630.88;5122586;27;20048;-47
2023/12/05 08:55:49;;;;;;;6.40;1.98;;;;;;;4.12;100.00;100631.69;5128068;27;20108;-54
2023/12/05 08:58:16;;;;;;;6.78;2.33;;;;;;;4.15;100.00;100631.09;5129054;27;20099;-49
2023/12/05 09:00:44;;;;;;;5.15;1.85;;;;;;;4.16;100.00;100627.22;5125990;27;20716;-50
2023/12/05 09:03:12;;;;;;;14.25;3.65;;;;;;;4.15;100.00;100617.41;5121127;27;20372;-48
2023/12/05 09:05:39;;;;;;;5.10;2.25;;;;;;;4.15;100.00;100625.63;5128427;27;20047;-51
2023/12/05 09:08:07;;;;;;;7.05;1.95;;;;;;;4.15;100.00;100622.88;5129437;27;20047;-50
2023/12/05 09:10:34;;;;;;;10.35;1.90;;;;;;;4.17;100.00;100623.38;5127735;27;20039;-47
2023/12/05 09:13:01;;;;;;;4.90;2.35;;;;;;;4.17;100.00;100623.38;5129084;27;20064;-47
2023/12/05 09:15:29;;;;;;;6.28;2.47;;;;;;;4.19;100.00;100626.63;5128177;27;20054;-49
2023/12/05 09:17:57;;;;;;;8.55;2.30;;;;;;;4.20;100.00;100631.00;5129404;27;20096;-53
2023/12/05 09:20:25;;;;;;;8.02;2.47;;;;;;;4.23;100.00;100629.56;5103777;28;20105;-49
2023/12/05 09:22:52;;;;;;;5.18;1.95;;;;;;;4.22;100.00;100641.63;5128098;27;20096;-53
2023/12/05 09:25:28;;;;;;;6.47;2.15;;;;;;;4.23;100.00;100632.31;5128448;27;20047;-52
2023/12/05 09:27:55;;;;;;;5.70;1.83;;;;;;;4.23;100.00;100633.13;5128551;27;20200;-49
2023/12/05 09:30:27;;;;;;;4.65;2.15;;;;;;;4.24;100.00;100640.22;5124964;27;20515;-46
2023/12/05 09:32:54;;;;;;;13.00;2.53;;;;;;;4.26;100.00;100635.22;5110796;27;20107;-50
2023/12/05 09:35:23;;;;;;;9.20;2.50;;;;;;;4.27;100.00;100634.13;5126997;27;20088;-52
2023/12/05 09:37:51;;;;;;;7.28;2.05;;;;;;;4.30;100.00;100627.22;5124928;27;20047;-53
2023/12/05 09:40:19;;;;;;;7.30;2.25;;;;;;;4.30;100.00;100632.69;5129417;27;20035;-50
2023/12/05 09:42:51;;;;;;;5.05;2.28;;;;;;;4.31;100.00;100628.84;5112844;27;20561;-49
2023/12/05 09:45:24;;;;;;;9.25;2.08;;;;;;;4.30;100.00;100630.78;5108163;28;20113;-51
2023/12/05 09:47:54;;;;;;;5.47;2.08;;;;;;;4.31;100.00;100629.63;5126871;27;20046;-50
2023/12/05 09:50:22;;;;;;;6.20;1.85;;;;;;;4.32;100.00;100628.53;5128332;27;20042;-48
2023/12/05 09:52:50;;;;;;;9.43;2.88;;;;;;;4.32;100.00;100635.94;5124544;27;20461;-54
2023/12/05 09:55:18;;;;;;;7.78;3.78;;;;;;;4.34;100.00;100635.66;5127869;27;20043;-49
2023/12/05 09:57:47;;;;;;;5.97;2.47;;;;;;;4.32;100.00;100642.22;5122559;27;20047;-48
2023/12/05 10:00:15;;;;;;;5.60;2.45;;;;;;;4.32;100.00;100641.41;5127257;27;20080;-52
2023/12/05 10:02:46;;;;;;;8.82;3.17;;;;;;;4.31;100.00;100643.34;5127962;27;20508;-53
2023/12/05 10:05:15;;;;;;;7.33;2.73;;;;;;;4.35;100.00;100640.00;5126158;27;20088;-52
2023/12/05 10:07:46;;;;;;;8.27;3.08;;;;;;;4.36;100.00;100652.59;5127400;27;20065;-49
2023/12/05 10:10:15;;;;;;;5.75;2.92;;;;;;;4.39;100.00;100651.97;5127804;27;20450;-49
2023/12/05 10:12:43;;;;;;;5.32;2.55;;;;;;;4.42;100.00;100651.38;5122452;27;20048;-49
2023/12/05 10:15:11;;;;;;;6.75;3.35;;;;;;;4.48;100.00;100659.16;5120480;27;20046;-49
2023/12/05 10:17:38;;;;;;;8.25;2.50;;;;;;;4.51;100.00;100661.28;5127727;27;20424;-52
2023/12/05 10:20:07;;;;;;;9.80;2.80;;;;;;;4.53;100.00;100663.72;5126237;27;20054;-54
2023/12/05 10:22:36;;;;;;;7.45;3.38;;;;;;;4.52;100.00;100664.84;5112748;27;20036;-48
2023/12/05 10:25:07;;;;;;;9.02;2.83;;;;;;;4.53;100.00;100666.47;5124801;27;20035;-46
2023/12/05 10:27:34;;;;;;;6.32;2.95;;;;;;;4.56;100.00;100674.06;5126914;27;20047;-51
2023/12/05 10:30:02;;;;;;;6.00;3.58;;;;;;;4.55;100.00;100676.03;5128556;27;20084;-50
2023/12/05 10:32:29;;;;;;;8.07;4.07;;;;;;;4.57;100.00;100675.72;5123702;27;20039;-49
2023/12/05 10:34:57;;;;;;;9.25;2.83;;;;;;;4.58;100.00;100680.09;5120608;27;20450;-50
2023/12/05 10:37:31;;;;;;;10.85;3.40;;;;;;;4.59;100.00;100690.72;5128368;27;20091;-49
2023/12/05 10:39:59;;;;;;;;;;;;;;;4.60;100.00;100683.31;5117164;27;20039;-53
2023/12/05 10:42:29;;;;;;;9.68;3.10;;;;;;;4.60;100.00;100686.06;5126637;27;20565;-49
2023/12/05 10:44:56;;;;;;;6.60;2.30;;;;;;;4.62;100.00;100692.88;5123983;27;20047;-55
2023/12/05 10:47:27;;;;;;;11.48;2.33;;;;;;;4.63;100.00;100696.44;5121528;27;20131;-50
2023/12/05 10:49:56;;;;;;;9.07;3.40;;;;;;;4.66;100.00;100690.31;5128464;27;20450;-52
2023/12/05 10:52:25;;;;;;;6.40;2.35;;;;;;;4.67;100.00;100702.91;5127661;27;20047;-51
2023/12/05 10:54:56;;;;;;;4.65;2.20;;;;;;;4.69;100.00;100706.13;5126991;27;20084;-47
2023/12/05 10:57:33;;;;;;;4.67;2.40;;;;;;;4.69;100.00;100719.84;5115879;27;20043;-48
2023/12/05 11:00:03;;;;;;;4.88;2.72;;;;;;;4.71;100.00;100720.38;5127724;27;20050;-51
2023/12/05 11:02:32;;;;;;;10.77;3.85;;;;;;;4.72;100.00;100727.47;5127431;27;20124;-51
2023/12/05 11:05:03;;;;;;;6.50;2.85;;;;;;;4.75;100.00;100721.38;5123686;27;20043;-49
2023/12/05 11:07:31;;;;;;;6.72;2.10;;;;;;;4.79;100.00;100725.94;5127857;27;20080;-51
2023/12/05 11:10:00;;;;;;;4.70;2.15;;;;;;;4.83;100.00;100728.88;5126865;27;20137;-48
2023/12/05 11:12:30;;;;;;;6.43;2.30;;;;;;;4.86;100.00;100722.78;5127953;28;20441;-49
2023/12/05 11:15:00;;;;;;;4.78;2.13;;;;;;;4.87;100.00;100727.94;5118842;27;20051;-55
2023/12/05 11:17:39;;;;;;;7.80;3.00;;;;;;;4.88;100.00;100737.00;5119137;28;20044;-50
2023/12/05 11:20:18;;;;;;;7.03;2.60;;;;;;;4.90;100.00;100729.25;5110884;28;20051;-46
2023/12/05 11:23:04;;;;;;;5.78;2.60;;;;;;;4.91;100.00;100730.91;5125726;28;20091;-46
2023/12/05 11:25:55;;;;;;;4.43;2.58;;;;;;;4.91;100.00;100733.66;5123008;28;20104;-48
2023/12/05 11:28:41;;;;;;;8.57;3.50;;;;;;;4.91;100.00;100726.22;5126587;28;20438;-51
2023/12/05 11:31:18;;;;;;;8.93;3.33;;;;;;;4.94;100.00;100724.81;5108475;28;20108;-50
2023/12/05 11:34:04;;;;;;;4.00;3.10;;;;;;;4.92;100.00;100714.13;5113830;28;20043;-51
2023/12/05 11:36:54;;;;;;;6.93;3.55;;;;;;;4.94;100.00;100722.06;5127083;28;20047;-49